ETHB

Buckeburg Airport

Germany
METAR ETHB 221720Z 21011KT 9999 FEW020 FEW035CB BKN160 22/09 Q1008 BLU
Observed Flight Rules
Apr-22 @ 17:20 UTC (58 minutes ago) Visual Flight Rules
Wind Visibility Clouds
210° at 11 knots 10,000+ meters
  • Few at 2,000' AGL
  • Few at 3,500' AGL
  • Broken at 16,000' AGL
Temperatures Readings
Current 22°C / 72°F
Dewpoint 9°C / 48°F
Humidity 44%
Altimeter 29.76" Hg
Pressure 1008 hPa
Elevation 78
METAR ETHB 221720Z 21011KT 9999 FEW020 FEW035CB BKN160 22/09 Q1008 BLU
Observed Flight Rules
Apr-22 @ 17:20 UTC
(58 minutes ago)
VFR
Wind Visibility
210° at 11 knots 10,000+ meters
Clouds
  • Few at 2,000' AGL
  • Few at 3,500' AGL
  • Broken at 16,000' AGL
Temperature Dewpoint
22°C / 72°F 9°C / 48°F
Humidity Altimeter Pressure
44% 29.76" Hg 1008 hPa